Terminal Aerodrome Forecast
Issued by NWS

Home | Current Version | Previous Version | Graphics & Text | Print | Product List | Glossary On
Versions: 1 2 3 4 5 6 7 8 9 10 11 12 13 14 15 16 17 18 19 20
000
FTUS43 KMPX 252300
TAFAXN
TAF
KAXN 252338Z 2600/2624 29012G19KT P6SM BKN035 OVC045
     FM260200 30007KT P6SM BKN035
     FM260600 32006KT P6SM SKC
     FM261500 35007KT P6SM SCT030=

USA.gov is the U.S. government's official web portal to all federal, state and local government web resources and services.